Time;durP1;ratioP1;P1;durP2;ratioP2;P2;SDS_P1;SDS_P2;PMS_P1;PMS_P2;Temp;Humidity;BMP_temperature;BMP_pressure;BME280_temperature;BME280_humidity;BME280_pressure;Samples;Min_cycle;Max_cycle;Signal;HPM_P1;HPM_P2
2023/10/30 00:00:08;;;;;;;2.15;1.83;;;;;;;;;;1031571;28;20038;-72
2023/10/30 00:00:38;;;;;;;1.00;1.00;;;;;;;;;;1030119;28;20027;-72
2023/10/30 00:01:09;;;;;;;0.55;0.55;;;;;;;;;;1031009;28;20482;-72
2023/10/30 00:01:39;;;;;;;1.63;0.68;;;;;;;;;;1030932;28;20483;-72
2023/10/30 00:02:10;;;;;;;0.73;0.73;;;;;;;;;;1030931;28;20080;-72
2023/10/30 00:02:40;;;;;;;1.50;1.40;;;;;;;;;;1032614;28;20033;-72
2023/10/30 00:03:11;;;;;;;0.95;0.95;;;;;;;;;;1033184;28;20026;-72
2023/10/30 00:03:41;;;;;;;1.00;1.00;;;;;;;;;;1032872;28;20022;-72
2023/10/30 00:04:12;;;;;;;1.27;0.85;;;;;;;;;;1032821;28;20157;-72
2023/10/30 00:04:42;;;;;;;1.85;1.17;;;;;;;;;;1031141;28;20451;-72
2023/10/30 00:05:13;;;;;;;1.48;1.38;;;;;;;;;;1030374;28;20035;-72
2023/10/30 00:05:43;;;;;;;4.03;2.45;;;;;;;;;;1033145;28;20076;-72
2023/10/30 00:06:14;;;;;;;1.45;1.35;;;;;;;;;;1033056;28;20037;-72
2023/10/30 00:06:44;;;;;;;6.68;2.00;;;;;;;;;;1032868;28;20050;-72
2023/10/30 00:07:15;;;;;;;1.55;1.45;;;;;;;;;;1031284;28;20030;-72
2023/10/30 00:07:46;;;;;;;2.40;2.20;;;;;;;;;;1031479;28;20018;-72
2023/10/30 00:08:16;;;;;;;0.50;0.50;;;;;;;;;;1031439;28;20034;-72
2023/10/30 00:08:47;;;;;;;0.70;0.70;;;;;;;;;;1030972;28;20018;-72
2023/10/30 00:09:17;;;;;;;3.35;1.90;;;;;;;;;;1031239;28;20113;-72
2023/10/30 00:09:48;;;;;;;20.95;1.58;;;;;;;;;;1031024;28;20029;-72
2023/10/30 00:10:18;;;;;;;0.70;0.70;;;;;;;;;;1030776;28;20033;-72
2023/10/30 00:10:49;;;;;;;1.70;0.63;;;;;;;;;;1031527;28;20022;-72
2023/10/30 00:11:19;;;;;;;2.35;1.38;;;;;;;;;;1031271;28;20463;-72
2023/10/30 00:11:50;;;;;;;1.63;1.52;;;;;;;;;;1031541;28;20022;-72
2023/10/30 00:12:20;;;;;;;3.55;2.05;;;;;;;;;;1029063;28;20022;-72
2023/10/30 00:12:51;;;;;;;2.45;1.35;;;;;;;;;;1031473;28;20445;-72
2023/10/30 00:13:22;;;;;;;2.47;1.90;;;;;;;;;;1031346;28;20034;-72
2023/10/30 00:13:52;;;;;;;1.60;1.55;;;;;;;;;;1031545;28;20061;-72
2023/10/30 00:14:23;;;;;;;1.70;1.60;;;;;;;;;;1031238;28;20036;-72
2023/10/30 00:14:53;;;;;;;5.75;1.55;;;;;;;;;;1030693;28;20054;-72
2023/10/30 00:15:25;;;;;;;4.03;1.35;;;;;;;;;;1030933;28;20034;-72
2023/10/30 00:15:56;;;;;;;0.55;0.55;;;;;;;;;;1031068;28;20022;-72
2023/10/30 00:16:27;;;;;;;1.88;1.75;;;;;;;;;;1030865;28;20386;-72
2023/10/30 00:16:57;;;;;;;24.83;1.77;;;;;;;;;;1031418;28;20156;-72
2023/10/30 00:17:28;;;;;;;3.83;2.10;;;;;;;;;;1030940;28;20121;-72
2023/10/30 00:17:58;;;;;;;2.55;1.52;;;;;;;;;;1031534;28;20025;-72
2023/10/30 00:18:29;;;;;;;0.47;0.47;;;;;;;;;;1031259;28;20125;-72
2023/10/30 00:19:02;;;;;;;1.67;1.35;;;;;;;;;;1031389;28;20109;-72
2023/10/30 00:19:32;;;;;;;0.75;0.75;;;;;;;;;;1032908;28;20121;-71
2023/10/30 00:20:04;;;;;;;0.63;0.63;;;;;;;;;;1032956;28;20026;-72
2023/10/30 00:20:40;;;;;;;1.10;1.02;;;;;;;;;;1032806;28;20123;-72
2023/10/30 00:21:11;;;;;;;0.88;0.88;;;;;;;;;;1028772;28;20582;-72
2023/10/30 00:21:41;;;;;;;2.95;1.25;;;;;;;;;;1031128;28;20126;-72
2023/10/30 00:22:12;;;;;;;3.63;1.40;;;;;;;;;;1030885;28;20065;-72
2023/10/30 00:22:43;;;;;;;4.47;1.27;;;;;;;;;;1030716;28;20069;-72
2023/10/30 00:23:13;;;;;;;1.55;1.45;;;;;;;;;;1031353;28;20466;-72
2023/10/30 00:23:45;;;;;;;2.35;0.95;;;;;;;;;;1031366;28;20030;-72
2023/10/30 00:24:15;;;;;;;1.02;0.73;;;;;;;;;;1031522;28;20037;-72
2023/10/30 00:24:46;;;;;;;2.45;1.13;;;;;;;;;;1031445;28;20456;-72
2023/10/30 00:25:16;;;;;;;4.55;1.67;;;;;;;;;;1031343;28;20027;-72
2023/10/30 00:25:47;;;;;;;0.75;0.63;;;;;;;;;;1031429;28;20022;-72
2023/10/30 00:26:17;;;;;;;0.75;0.75;;;;;;;;;;1034894;28;20022;-71
2023/10/30 00:26:48;;;;;;;2.17;0.77;;;;;;;;;;1035294;28;20068;-71
2023/10/30 00:27:19;;;;;;;4.03;1.08;;;;;;;;;;1032903;28;20129;-72
2023/10/30 00:27:49;;;;;;;5.68;2.95;;;;;;;;;;1031164;28;20050;-72
2023/10/30 00:28:20;;;;;;;1.02;0.98;;;;;;;;;;1030987;28;20015;-72
2023/10/30 00:28:51;;;;;;;0.85;0.85;;;;;;;;;;1030623;28;20112;-72
2023/10/30 00:29:22;;;;;;;1.33;1.23;;;;;;;;;;1030963;28;20026;-72
2023/10/30 00:29:52;;;;;;;2.42;1.85;;;;;;;;;;1031485;28;20065;-72
2023/10/30 00:30:23;;;;;;;3.85;1.13;;;;;;;;;;1031057;28;20026;-72
2023/10/30 00:30:54;;;;;;;2.88;1.70;;;;;;;;;;1030938;28;20109;-72
2023/10/30 00:31:25;;;;;;;0.70;0.70;;;;;;;;;;1026938;28;20022;-72
2023/10/30 00:31:56;;;;;;;1.00;0.93;;;;;;;;;;1025054;28;20042;-72
2023/10/30 00:32:26;;;;;;;0.73;0.63;;;;;;;;;;1029033;28;20450;-72
2023/10/30 00:32:57;;;;;;;2.00;1.90;;;;;;;;;;1029277;28;20027;-72
2023/10/30 00:33:27;;;;;;;0.90;0.85;;;;;;;;;;1032896;28;20029;-72
2023/10/30 00:33:58;;;;;;;2.00;1.70;;;;;;;;;;1031184;28;20036;-72
2023/10/30 00:34:29;;;;;;;8.65;1.60;;;;;;;;;;1030909;28;20035;-72
2023/10/30 00:34:59;;;;;;;2.53;1.77;;;;;;;;;;1030995;28;20022;-72
2023/10/30 00:35:30;;;;;;;3.40;1.88;;;;;;;;;;1030702;28;20038;-72
2023/10/30 00:36:00;;;;;;;5.93;2.70;;;;;;;;;;1030790;28;20045;-72
2023/10/30 00:36:31;;;;;;;1.65;1.13;;;;;;;;;;1031115;28;20073;-72
2023/10/30 00:37:01;;;;;;;1.25;1.17;;;;;;;;;;1031290;28;20526;-72
2023/10/30 00:37:32;;;;;;;0.82;0.82;;;;;;;;;;1034871;28;20028;-72
2023/10/30 00:38:02;;;;;;;1.90;1.80;;;;;;;;;;1031139;28;20054;-72
2023/10/30 00:38:33;;;;;;;7.40;3.22;;;;;;;;;;1030973;28;20616;-72
2023/10/30 00:39:04;;;;;;;1.33;1.20;;;;;;;;;;1031035;28;20030;-72
2023/10/30 00:39:35;;;;;;;1.65;1.30;;;;;;;;;;1028252;28;20954;-72
2023/10/30 00:40:06;;;;;;;0.20;0.20;;;;;;;;;;1028956;28;20050;-72
2023/10/30 00:40:37;;;;;;;2.60;1.80;;;;;;;;;;1028697;28;20513;-72
2023/10/30 00:41:10;;;;;;;7.68;2.38;;;;;;;;;;1029564;28;20463;-72
2023/10/30 00:41:41;;;;;;;2.30;1.50;;;;;;;;;;1031081;28;20022;-72
2023/10/30 00:42:11;;;;;;;7.10;2.17;;;;;;;;;;1031305;28;20395;-72
2023/10/30 00:42:42;;;;;;;0.55;0.55;;;;;;;;;;1029984;28;20057;-72
2023/10/30 00:43:13;;;;;;;3.22;1.92;;;;;;;;;;1030814;28;20026;-72
2023/10/30 00:43:43;;;;;;;1.33;1.23;;;;;;;;;;1031439;28;20490;-72
2023/10/30 00:44:14;;;;;;;0.93;0.90;;;;;;;;;;1031462;28;20036;-72
2023/10/30 00:44:44;;;;;;;0.68;0.68;;;;;;;;;;1032898;28;20421;-72
2023/10/30 00:45:14;;;;;;;2.15;1.45;;;;;;;;;;1032486;28;20049;-72
2023/10/30 00:45:45;;;;;;;15.82;1.67;;;;;;;;;;1033581;28;20036;-72
2023/10/30 00:46:15;;;;;;;0.52;0.52;;;;;;;;;;1031623;28;20031;-72
2023/10/30 00:46:46;;;;;;;5.38;2.15;;;;;;;;;;1030405;28;20105;-72
2023/10/30 00:47:16;;;;;;;2.67;1.30;;;;;;;;;;1031255;28;20391;-72
2023/10/30 00:47:47;;;;;;;0.93;0.93;;;;;;;;;;1031102;28;20461;-72
2023/10/30 00:48:17;;;;;;;1.45;1.35;;;;;;;;;;1030965;28;20019;-72
2023/10/30 00:48:48;;;;;;;2.70;2.50;;;;;;;;;;1031274;28;20061;-72
2023/10/30 00:49:19;;;;;;;1.25;1.15;;;;;;;;;;1031269;28;20066;-72
2023/10/30 00:49:50;;;;;;;1.85;1.65;;;;;;;;;;1031072;28;20073;-72
2023/10/30 00:50:20;;;;;;;3.38;2.55;;;;;;;;;;1030363;28;20031;-72
2023/10/30 00:50:51;;;;;;;0.63;0.63;;;;;;;;;;1030683;28;20034;-72
2023/10/30 00:51:21;;;;;;;1.10;0.70;;;;;;;;;;1030964;28;20037;-72
2023/10/30 00:51:52;;;;;;;3.38;3.08;;;;;;;;;;1030666;28;20398;-72
2023/10/30 00:52:22;;;;;;;5.07;1.45;;;;;;;;;;1029711;28;20112;-72
2023/10/30 00:52:53;;;;;;;1.15;1.05;;;;;;;;;;1030663;28;20723;-72
2023/10/30 00:53:23;;;;;;;0.50;0.50;;;;;;;;;;1030760;28;20540;-72
2023/10/30 00:53:54;;;;;;;7.05;2.25;;;;;;;;;;1031185;28;20033;-72
2023/10/30 00:54:24;;;;;;;8.68;2.70;;;;;;;;;;1030746;28;20092;-72
2023/10/30 00:54:55;;;;;;;5.13;1.35;;;;;;;;;;1031048;28;20037;-72
2023/10/30 00:55:26;;;;;;;1.20;1.13;;;;;;;;;;1031210;28;20029;-72
2023/10/30 00:55:56;;;;;;;29.70;2.20;;;;;;;;;;1031492;28;20030;-72
2023/10/30 00:56:27;;;;;;;0.52;0.52;;;;;;;;;;1031150;28;20103;-72
2023/10/30 00:56:58;;;;;;;3.55;2.45;;;;;;;;;;1031945;28;20482;-72
2023/10/30 00:57:28;;;;;;;0.30;0.30;;;;;;;;;;1030360;28;20049;-72
2023/10/30 00:57:59;;;;;;;1.45;1.33;;;;;;;;;;1030787;28;20463;-72
2023/10/30 00:58:29;;;;;;;1.27;0.85;;;;;;;;;;1025848;28;20029;-72
2023/10/30 00:59:00;;;;;;;4.25;3.45;;;;;;;;;;1026776;28;20466;-72
2023/10/30 00:59:30;;;;;;;13.48;2.00;;;;;;;;;;1027724;28;20054;-72
2023/10/30 01:00:01;;;;;;;2.47;2.28;;;;;;;;;;1030986;28;20039;-72
2023/10/30 01:00:31;;;;;;;2.90;1.90;;;;;;;;;;1030527;28;20033;-72
2023/10/30 01:01:02;;;;;;;0.35;0.35;;;;;;;;;;1031157;28;20482;-72
2023/10/30 01:01:32;;;;;;;1.58;1.05;;;;;;;;;;1031284;28;20493;-72
2023/10/30 01:02:04;;;;;;;2.67;1.95;;;;;;;;;;1030167;28;20512;-72
2023/10/30 01:02:36;;;;;;;1.50;1.40;;;;;;;;;;1030355;28;20030;-72
2023/10/30 01:03:06;;;;;;;9.20;2.63;;;;;;;;;;1030509;28;20390;-72
2023/10/30 01:03:37;;;;;;;22.08;2.75;;;;;;;;;;1030123;28;20105;-72
2023/10/30 01:04:08;;;;;;;2.30;2.10;;;;;;;;;;1031018;28;20466;-72
2023/10/30 01:04:38;;;;;;;1.17;1.02;;;;;;;;;;1030908;28;20029;-72
2023/10/30 01:05:09;;;;;;;0.50;0.50;;;;;;;;;;1032891;28;20034;-72
2023/10/30 01:05:39;;;;;;;1.05;0.95;;;;;;;;;;1034680;28;20076;-72
2023/10/30 01:06:10;;;;;;;0.90;0.80;;;;;;;;;;1034729;28;20038;-72
2023/10/30 01:06:41;;;;;;;2.97;2.70;;;;;;;;;;1034070;28;20093;-72
2023/10/30 01:07:11;;;;;;;2.72;1.70;;;;;;;;;;1030868;28;20026;-72
2023/10/30 01:07:42;;;;;;;10.23;2.42;;;;;;;;;;1026525;28;20372;-72
2023/10/30 01:08:12;;;;;;;0.68;0.68;;;;;;;;;;1024561;28;20042;-72
2023/10/30 01:08:43;;;;;;;1.92;1.80;;;;;;;;;;1026208;28;20015;-72
2023/10/30 01:09:14;;;;;;;4.57;3.20;;;;;;;;;;1022872;28;20031;-72
2023/10/30 01:09:44;;;;;;;0.90;0.70;;;;;;;;;;1025892;28;20085;-72
2023/10/30 01:10:15;;;;;;;0.57;0.57;;;;;;;;;;1030694;28;20471;-72
2023/10/30 01:10:45;;;;;;;0.88;0.88;;;;;;;;;;1029277;28;20030;-72
2023/10/30 01:11:16;;;;;;;6.75;2.78;;;;;;;;;;1029684;28;20065;-72
2023/10/30 01:11:46;;;;;;;0.77;0.77;;;;;;;;;;1030848;28;20023;-72
2023/10/30 01:12:18;;;;;;;3.97;1.33;;;;;;;;;;1029088;28;20030;-72
2023/10/30 01:12:49;;;;;;;2.20;1.30;;;;;;;;;;1030816;28;20036;-73
2023/10/30 01:13:19;;;;;;;1.13;1.05;;;;;;;;;;1030550;28;20144;-72
2023/10/30 01:13:50;;;;;;;1.75;1.48;;;;;;;;;;1030539;28;20025;-72
2023/10/30 01:14:20;;;;;;;2.00;1.90;;;;;;;;;;1031119;28;20113;-72
2023/10/30 01:14:51;;;;;;;1.52;0.85;;;;;;;;;;1031510;28;20026;-72
2023/10/30 01:15:21;;;;;;;1.55;1.45;;;;;;;;;;1031687;28;20458;-72
2023/10/30 01:15:53;;;;;;;1.17;0.93;;;;;;;;;;1033641;28;20481;-72
2023/10/30 01:16:23;;;;;;;0.85;0.70;;;;;;;;;;1033669;28;20030;-72
2023/10/30 01:16:54;;;;;;;1.00;1.00;;;;;;;;;;1029526;28;20058;-72
2023/10/30 01:17:25;;;;;;;0.98;0.98;;;;;;;;;;1023536;28;20027;-72
2023/10/30 01:17:55;;;;;;;2.45;2.05;;;;;;;;;;1023295;29;20533;-72
2023/10/30 01:18:26;;;;;;;2.30;1.48;;;;;;;;;;1023527;28;20027;-72
2023/10/30 01:18:57;;;;;;;2.70;2.05;;;;;;;;;;1024061;28;20023;-73
2023/10/30 01:19:28;;;;;;;0.82;0.70;;;;;;;;;;1028353;28;20061;-72
2023/10/30 01:20:03;;;;;;;1.08;1.02;;;;;;;;;;1031908;28;20030;-73
2023/10/30 01:20:37;;;;;;;1.83;1.35;;;;;;;;;;1031557;28;20030;-72
2023/10/30 01:21:09;;;;;;;2.13;1.08;;;;;;;;;;1030961;28;20236;-72
2023/10/30 01:21:40;;;;;;;0.93;0.88;;;;;;;;;;1031662;28;20026;-72
2023/10/30 01:22:10;;;;;;;0.60;0.60;;;;;;;;;;1031919;28;20065;-72
2023/10/30 01:22:41;;;;;;;1.00;0.73;;;;;;;;;;1031724;28;20097;-72
2023/10/30 01:23:11;;;;;;;1.40;1.30;;;;;;;;;;1027410;28;20399;-72
2023/10/30 01:23:42;;;;;;;0.10;0.10;;;;;;;;;;1027735;28;20541;-72
2023/10/30 01:24:13;;;;;;;1.00;0.60;;;;;;;;;;1031583;28;20034;-72
2023/10/30 01:24:43;;;;;;;2.00;1.85;;;;;;;;;;1031161;28;20029;-72
2023/10/30 01:25:14;;;;;;;2.80;1.80;;;;;;;;;;1029145;28;20038;-72
2023/10/30 01:25:46;;;;;;;0.55;0.50;;;;;;;;;;1030738;28;20022;-72
2023/10/30 01:26:17;;;;;;;0.32;0.32;;;;;;;;;;1029827;28;20038;-73
2023/10/30 01:26:47;;;;;;;2.38;1.83;;;;;;;;;;1030673;28;20399;-72
2023/10/30 01:27:18;;;;;;;3.65;2.13;;;;;;;;;;1033558;28;20033;-72
2023/10/30 01:27:48;;;;;;;20.92;1.20;;;;;;;;;;1034634;28;20117;-72
2023/10/30 01:28:19;;;;;;;0.80;0.68;;;;;;;;;;1034083;28;20100;-73
2023/10/30 01:28:49;;;;;;;4.47;1.35;;;;;;;;;;1033266;28;20033;-72
2023/10/30 01:29:20;;;;;;;2.63;2.20;;;;;;;;;;1031277;28;20045;-72
2023/10/30 01:29:50;;;;;;;0.40;0.40;;;;;;;;;;1030389;28;20617;-72
2023/10/30 01:30:21;;;;;;;1.02;0.88;;;;;;;;;;1035002;28;20029;-72
2023/10/30 01:30:52;;;;;;;0.75;0.75;;;;;;;;;;1034514;28;20596;-72
2023/10/30 01:31:27;;;;;;;1.90;1.80;;;;;;;;;;1030265;28;20041;-72
2023/10/30 01:31:57;;;;;;;0.93;0.93;;;;;;;;;;1032645;28;20088;-73
2023/10/30 01:32:28;;;;;;;1.48;1.05;;;;;;;;;;1030512;28;20469;-73
2023/10/30 01:32:59;;;;;;;2.92;2.47;;;;;;;;;;1032053;28;20089;-73
2023/10/30 01:33:30;;;;;;;3.47;2.22;;;;;;;;;;1029120;28;20500;-73
2023/10/30 01:34:00;;;;;;;5.75;2.22;;;;;;;;;;1030432;28;20026;-72
2023/10/30 01:34:31;;;;;;;9.68;0.85;;;;;;;;;;1029466;28;20482;-72
2023/10/30 01:35:01;;;;;;;1.70;0.95;;;;;;;;;;1029893;28;20055;-72
2023/10/30 01:35:32;;;;;;;0.50;0.50;;;;;;;;;;1029125;28;20462;-73
2023/10/30 01:36:03;;;;;;;2.05;1.70;;;;;;;;;;1030530;28;20397;-73
2023/10/30 01:36:33;;;;;;;1.63;1.35;;;;;;;;;;1034953;28;20145;-73
2023/10/30 01:37:04;;;;;;;3.17;2.42;;;;;;;;;;1035375;28;20022;-73
2023/10/30 01:37:34;;;;;;;2.13;2.03;;;;;;;;;;1034456;28;20121;-73
2023/10/30 01:38:05;;;;;;;0.85;0.85;;;;;;;;;;1028863;28;20039;-72
2023/10/30 01:38:35;;;;;;;1.45;1.35;;;;;;;;;;1024213;28;20031;-72
2023/10/30 01:39:06;;;;;;;0.50;0.50;;;;;;;;;;1024855;28;20031;-73
2023/10/30 01:39:37;;;;;;;1.45;1.35;;;;;;;;;;1029019;28;20030;-73
2023/10/30 01:40:08;;;;;;;1.67;1.55;;;;;;;;;;1030943;28;20036;-72
2023/10/30 01:40:45;;;;;;;0.43;0.43;;;;;;;;;;1029569;28;20041;-72
2023/10/30 01:41:16;;;;;;;3.58;2.05;;;;;;;;;;1032463;28;20506;-73
2023/10/30 01:41:46;;;;;;;1.80;1.55;;;;;;;;;;1033009;28;20045;-72
2023/10/30 01:42:17;;;;;;;2.05;1.55;;;;;;;;;;1030272;28;20033;-72
2023/10/30 01:42:47;;;;;;;0.30;0.30;;;;;;;;;;1032065;28;20022;-72
2023/10/30 01:43:28;;;;;;;2.95;2.13;;;;;;;;;;1030702;28;20165;-72
2023/10/30 01:43:59;;;;;;;2.03;1.58;;;;;;;;;;1028471;28;20509;-72
2023/10/30 01:44:29;;;;;;;5.18;2.58;;;;;;;;;;1031094;28;20026;-72
2023/10/30 01:45:00;;;;;;;3.92;1.73;;;;;;;;;;1031686;28;20026;-72
2023/10/30 01:45:30;;;;;;;5.57;2.38;;;;;;;;;;1030700;28;20081;-72
2023/10/30 01:46:01;;;;;;;4.90;2.97;;;;;;;;;;1031101;28;20371;-73
2023/10/30 01:46:32;;;;;;;2.53;1.85;;;;;;;;;;1030243;28;20479;-73
2023/10/30 01:47:03;;;;;;;2.13;1.63;;;;;;;;;;1030489;28;20032;-73
2023/10/30 01:47:33;;;;;;;0.60;0.60;;;;;;;;;;1028605;28;20026;-73
2023/10/30 01:48:04;;;;;;;0.52;0.52;;;;;;;;;;1029374;28;20026;-73
2023/10/30 01:48:35;;;;;;;1.13;1.08;;;;;;;;;;1032980;28;20117;-71
2023/10/30 01:49:05;;;;;;;0.38;0.38;;;;;;;;;;1029043;28;20030;-72
2023/10/30 01:49:36;;;;;;;4.28;0.75;;;;;;;;;;1030805;28;20402;-73
2023/10/30 01:50:07;;;;;;;4.57;2.00;;;;;;;;;;1031282;28;20076;-72
2023/10/30 01:50:38;;;;;;;1.10;1.10;;;;;;;;;;1029269;28;20030;-71
2023/10/30 01:51:10;;;;;;;1.27;1.23;;;;;;;;;;1031114;28;20040;-73
2023/10/30 01:51:41;;;;;;;4.28;2.22;;;;;;;;;;1030170;28;20084;-74
2023/10/30 01:52:13;;;;;;;8.85;2.17;;;;;;;;;;1030681;28;20033;-72
2023/10/30 01:52:44;;;;;;;1.85;1.60;;;;;;;;;;1030813;28;20030;-72
2023/10/30 01:53:21;;;;;;;4.10;1.42;;;;;;;;;;1030026;28;20033;-72
2023/10/30 01:53:52;;;;;;;1.85;1.35;;;;;;;;;;1030341;28;20030;-72
2023/10/30 01:54:22;;;;;;;9.93;3.40;;;;;;;;;;1026293;28;20034;-73
2023/10/30 01:54:53;;;;;;;2.42;0.95;;;;;;;;;;1030407;28;20461;-73
2023/10/30 01:55:25;;;;;;;0.98;0.98;;;;;;;;;;1031279;28;20535;-73
2023/10/30 01:55:56;;;;;;;3.83;1.90;;;;;;;;;;1031032;28;20088;-73
2023/10/30 01:56:27;;;;;;;1.80;1.70;;;;;;;;;;1030415;28;20030;-73
2023/10/30 01:56:57;;;;;;;1.45;0.98;;;;;;;;;;1030873;28;20375;-72
2023/10/30 01:57:28;;;;;;;15.35;3.33;;;;;;;;;;1026919;28;20030;-73
2023/10/30 01:57:59;;;;;;;2.25;2.05;;;;;;;;;;1027991;28;20049;-72
2023/10/30 01:58:30;;;;;;;2.53;2.35;;;;;;;;;;1028242;28;20038;-72
2023/10/30 01:59:01;;;;;;;1.83;1.33;;;;;;;;;;1028553;28;20126;-73
2023/10/30 01:59:32;;;;;;;2.03;1.17;;;;;;;;;;1030154;28;20034;-73
2023/10/30 02:00:02;;;;;;;3.30;2.25;;;;;;;;;;1029686;28;20282;-73
2023/10/30 02:00:34;;;;;;;1.92;1.65;;;;;;;;;;1029469;28;20591;-71
2023/10/30 02:01:05;;;;;;;2.53;1.98;;;;;;;;;;1028359;28;20026;-72
2023/10/30 02:01:38;;;;;;;2.70;2.50;;;;;;;;;;1029748;28;20521;-72
2023/10/30 02:02:09;;;;;;;3.05;1.80;;;;;;;;;;1031472;28;20026;-71
2023/10/30 02:02:40;;;;;;;2.92;1.02;;;;;;;;;;1031419;28;20030;-73
2023/10/30 02:03:11;;;;;;;1.25;1.23;;;;;;;;;;1031134;28;20581;-72
2023/10/30 02:03:42;;;;;;;1.90;1.75;;;;;;;;;;1024667;28;20459;-72
2023/10/30 02:04:13;;;;;;;1.25;1.15;;;;;;;;;;1029110;28;20870;-74
2023/10/30 02:04:43;;;;;;;2.08;1.02;;;;;;;;;;1027690;28;20534;-73
2023/10/30 02:05:14;;;;;;;1.23;1.13;;;;;;;;;;1031008;28;20053;-72
2023/10/30 02:05:45;;;;;;;6.65;2.53;;;;;;;;;;1028993;28;20026;-73
2023/10/30 02:06:15;;;;;;;1.98;1.83;;;;;;;;;;1029403;28;20127;-73
2023/10/30 02:06:46;;;;;;;3.13;2.45;;;;;;;;;;1031679;28;20443;-73
2023/10/30 02:07:17;;;;;;;1.90;1.77;;;;;;;;;;1034536;28;20032;-72
2023/10/30 02:07:47;;;;;;;3.30;0.82;;;;;;;;;;1032663;28;20478;-73
2023/10/30 02:08:18;;;;;;;1.63;1.58;;;;;;;;;;1029579;28;20034;-73
2023/10/30 02:08:49;;;;;;;4.45;3.70;;;;;;;;;;1028516;28;20053;-72
2023/10/30 02:09:19;;;;;;;2.22;1.38;;;;;;;;;;1029022;28;20520;-72
2023/10/30 02:09:50;;;;;;;1.08;1.08;;;;;;;;;;1029441;28;20030;-72
2023/10/30 02:10:21;;;;;;;2.60;1.02;;;;;;;;;;1033025;28;20068;-72
2023/10/30 02:10:51;;;;;;;2.58;2.38;;;;;;;;;;1029031;28;20430;-73
2023/10/30 02:11:22;;;;;;;1.65;1.25;;;;;;;;;;1028711;28;20034;-71
2023/10/30 02:11:53;;;;;;;1.33;1.00;;;;;;;;;;1030093;28;20394;-71
2023/10/30 02:12:23;;;;;;;6.25;3.10;;;;;;;;;;1028978;28;20502;-71
2023/10/30 02:12:54;;;;;;;18.33;3.60;;;;;;;;;;1030832;28;20034;-72
2023/10/30 02:13:24;;;;;;;3.05;1.85;;;;;;;;;;1030039;28;20085;-72
2023/10/30 02:13:55;;;;;;;1.70;1.23;;;;;;;;;;1030326;28;20093;-71
2023/10/30 02:14:26;;;;;;;11.07;2.47;;;;;;;;;;1028978;28;20038;-73
2023/10/30 02:14:56;;;;;;;7.45;2.67;;;;;;;;;;1029581;28;20026;-72
2023/10/30 02:15:27;;;;;;;1.45;1.05;;;;;;;;;;1028831;28;20496;-72
2023/10/30 02:15:58;;;;;;;1.55;1.45;;;;;;;;;;1028730;28;20045;-71
2023/10/30 02:16:29;;;;;;;2.08;1.92;;;;;;;;;;1027552;28;20726;-73
2023/10/30 02:17:00;;;;;;;1.40;1.30;;;;;;;;;;1029168;28;20042;-72
2023/10/30 02:17:33;;;;;;;8.15;3.03;;;;;;;;;;1028935;28;20029;-73
2023/10/30 02:18:04;;;;;;;1.48;1.33;;;;;;;;;;1029222;28;20038;-72
2023/10/30 02:18:35;;;;;;;7.25;2.28;;;;;;;;;;1029509;28;20061;-72
2023/10/30 02:19:08;;;;;;;5.60;2.40;;;;;;;;;;1033716;28;20030;-71
2023/10/30 02:19:38;;;;;;;2.13;2.03;;;;;;;;;;1029472;28;20218;-72
2023/10/30 02:20:11;;;;;;;7.32;1.30;;;;;;;;;;1026319;28;20035;-72
2023/10/30 02:20:41;;;;;;;0.30;0.30;;;;;;;;;;1026449;28;20554;-72
2023/10/30 02:21:12;;;;;;;2.30;2.13;;;;;;;;;;1025857;28;20129;-71
2023/10/30 02:21:43;;;;;;;5.55;2.72;;;;;;;;;;1029373;28;19999;-71
2023/10/30 02:22:13;;;;;;;1.23;0.63;;;;;;;;;;1029446;28;20034;-72
2023/10/30 02:22:44;;;;;;;1.42;1.27;;;;;;;;;;1032374;28;20032;-72
2023/10/30 02:23:15;;;;;;;0.52;0.52;;;;;;;;;;1028082;28;20157;-72
2023/10/30 02:23:46;;;;;;;3.03;2.40;;;;;;;;;;1028091;28;20033;-72
2023/10/30 02:24:17;;;;;;;12.90;3.60;;;;;;;;;;1029417;28;20722;-72
2023/10/30 02:24:47;;;;;;;0.45;0.38;;;;;;;;;;1030006;28;20071;-72
2023/10/30 02:25:18;;;;;;;3.90;1.52;;;;;;;;;;1026929;28;20775;-72
2023/10/30 02:25:48;;;;;;;2.22;2.13;;;;;;;;;;1031698;28;20030;-72
2023/10/30 02:26:19;;;;;;;3.65;3.25;;;;;;;;;;1027398;28;20639;-72
2023/10/30 02:26:50;;;;;;;6.80;2.42;;;;;;;;;;1026616;28;20450;-73
2023/10/30 02:27:20;;;;;;;1.35;1.30;;;;;;;;;;1026347;28;20034;-73
2023/10/30 02:27:51;;;;;;;21.30;2.63;;;;;;;;;;1020501;28;20126;-71
2023/10/30 02:28:23;;;;;;;4.05;1.90;;;;;;;;;;1023575;28;20410;-73
2023/10/30 02:28:53;;;;;;;1.55;0.77;;;;;;;;;;1023689;28;20678;-72
2023/10/30 02:29:24;;;;;;;1.52;1.42;;;;;;;;;;1027556;28;20494;-73
2023/10/30 02:29:54;;;;;;;16.05;4.05;;;;;;;;;;1032090;28;20057;-72
2023/10/30 02:30:26;;;;;;;1.30;1.17;;;;;;;;;;1032711;28;20026;-74
2023/10/30 02:30:56;;;;;;;1.40;1.33;;;;;;;;;;1031921;28;20049;-74
2023/10/30 02:31:27;;;;;;;3.67;1.10;;;;;;;;;;1028799;28;20035;-73
2023/10/30 02:31:57;;;;;;;2.92;1.38;;;;;;;;;;1029541;28;20023;-73
2023/10/30 02:32:28;;;;;;;3.00;2.78;;;;;;;;;;1029236;28;20042;-73
2023/10/30 02:32:58;;;;;;;2.15;1.95;;;;;;;;;;1029094;28;20078;-74
2023/10/30 02:33:29;;;;;;;7.32;3.13;;;;;;;;;;1028433;28;20387;-74
2023/10/30 02:34:00;;;;;;;2.88;2.35;;;;;;;;;;1030059;28;20032;-74
2023/10/30 02:34:31;;;;;;;5.00;2.72;;;;;;;;;;1027182;28;20120;-74
2023/10/30 02:35:02;;;;;;;1.58;1.27;;;;;;;;;;1025159;28;20026;-74
2023/10/30 02:35:32;;;;;;;1.80;1.45;;;;;;;;;;1019696;28;20510;-74
2023/10/30 02:36:03;;;;;;;0.68;0.68;;;;;;;;;;1024745;28;20030;-74
2023/10/30 02:36:34;;;;;;;3.42;2.90;;;;;;;;;;1024720;28;20042;-75
2023/10/30 02:37:05;;;;;;;2.90;2.60;;;;;;;;;;1027512;28;20081;-74
2023/10/30 02:37:37;;;;;;;5.20;3.53;;;;;;;;;;1028397;28;20042;-73
2023/10/30 02:38:08;;;;;;;5.57;2.97;;;;;;;;;;1028866;28;20023;-73
2023/10/30 02:38:45;;;;;;;1.95;1.08;;;;;;;;;;1029108;28;20022;-75
2023/10/30 02:39:15;;;;;;;2.55;1.80;;;;;;;;;;1028328;28;20482;-72
2023/10/30 02:39:46;;;;;;;5.38;2.80;;;;;;;;;;1031256;28;20045;-73
2023/10/30 02:40:17;;;;;;;0.85;0.52;;;;;;;;;;1030245;28;20025;-73
2023/10/30 02:40:47;;;;;;;0.73;0.73;;;;;;;;;;1030749;28;20064;-74
2023/10/30 02:41:19;;;;;;;22.00;3.40;;;;;;;;;;1031020;28;20598;-73
2023/10/30 02:41:49;;;;;;;1.13;1.08;;;;;;;;;;1030562;28;20132;-73
2023/10/30 02:42:20;;;;;;;1.35;0.93;;;;;;;;;;1027431;28;20521;-70
2023/10/30 02:42:50;;;;;;;8.50;2.35;;;;;;;;;;1026458;28;20743;-73
2023/10/30 02:43:21;;;;;;;9.15;2.17;;;;;;;;;;1026884;28;20033;-74
2023/10/30 02:43:51;;;;;;;1.67;1.58;;;;;;;;;;1022612;28;20035;-73
2023/10/30 02:44:22;;;;;;;1.50;1.40;;;;;;;;;;1022136;28;20023;-73
2023/10/30 02:44:52;;;;;;;1.23;1.20;;;;;;;;;;1027704;28;20459;-73
2023/10/30 02:45:23;;;;;;;0.95;0.95;;;;;;;;;;1026884;28;20573;-73
2023/10/30 02:45:53;;;;;;;8.85;2.50;;;;;;;;;;1026656;28;20244;-73
2023/10/30 02:46:24;;;;;;;1.15;0.82;;;;;;;;;;1025155;28;20027;-74
2023/10/30 02:46:55;;;;;;;1.38;1.30;;;;;;;;;;1027040;28;20601;-74
2023/10/30 02:47:26;;;;;;;10.70;2.67;;;;;;;;;;1029652;28;20030;-74
2023/10/30 02:47:56;;;;;;;1.08;0.98;;;;;;;;;;1032630;28;20029;-74
2023/10/30 02:48:27;;;;;;;1.65;0.98;;;;;;;;;;1033861;28;20091;-74
2023/10/30 02:48:58;;;;;;;0.65;0.65;;;;;;;;;;1034574;28;20563;-73
2023/10/30 02:49:28;;;;;;;1.52;1.45;;;;;;;;;;1028080;28;20226;-74
2023/10/30 02:49:59;;;;;;;8.25;2.22;;;;;;;;;;1028823;28;20057;-74
2023/10/30 02:50:30;;;;;;;0.88;0.85;;;;;;;;;;1027493;28;20030;-73
2023/10/30 02:51:01;;;;;;;14.00;1.75;;;;;;;;;;1028039;28;20077;-74
2023/10/30 02:51:32;;;;;;;1.83;1.58;;;;;;;;;;1028364;28;20026;-73
2023/10/30 02:52:02;;;;;;;4.47;1.75;;;;;;;;;;1028428;28;20525;-73
2023/10/30 02:52:35;;;;;;;6.57;2.63;;;;;;;;;;1026720;28;20612;-72
2023/10/30 02:53:05;;;;;;;32.20;2.45;;;;;;;;;;1024546;28;20038;-73
2023/10/30 02:53:36;;;;;;;2.33;1.38;;;;;;;;;;1025766;28;20061;-73
2023/10/30 02:54:06;;;;;;;8.20;3.67;;;;;;;;;;1027349;28;20161;-74
2023/10/30 02:54:37;;;;;;;0.95;0.90;;;;;;;;;;1032228;28;20438;-74
2023/10/30 02:55:09;;;;;;;17.60;2.78;;;;;;;;;;1032260;28;20026;-75
2023/10/30 02:55:39;;;;;;;2.03;1.55;;;;;;;;;;1029192;28;20026;-72
2023/10/30 02:56:10;;;;;;;7.60;3.72;;;;;;;;;;1029403;28;20041;-73
2023/10/30 02:56:41;;;;;;;4.63;2.67;;;;;;;;;;1028790;28;20074;-75
2023/10/30 02:57:13;;;;;;;2.05;1.45;;;;;;;;;;1026321;28;20062;-73
2023/10/30 02:57:46;;;;;;;26.70;1.85;;;;;;;;;;1025469;28;20026;-73
2023/10/30 02:58:16;;;;;;;1.73;1.63;;;;;;;;;;1030370;28;20404;-74
2023/10/30 02:58:47;;;;;;;1.10;0.73;;;;;;;;;;1027700;28;20509;-74
2023/10/30 02:59:17;;;;;;;4.13;2.97;;;;;;;;;;1027843;28;20619;-73
2023/10/30 02:59:48;;;;;;;1.77;0.98;;;;;;;;;;1028652;28;20030;-73
2023/10/30 03:00:18;;;;;;;3.20;1.33;;;;;;;;;;1027026;28;20033;-73
2023/10/30 03:00:53;;;;;;;1.77;1.40;;;;;;;;;;1027835;28;20121;-73
2023/10/30 03:01:24;;;;;;;2.75;2.50;;;;;;;;;;1027221;28;20759;-72
2023/10/30 03:01:54;;;;;;;1.05;0.93;;;;;;;;;;1029231;28;20022;-72
2023/10/30 03:02:25;;;;;;;3.28;1.63;;;;;;;;;;1028421;28;20041;-72
2023/10/30 03:02:55;;;;;;;0.93;0.90;;;;;;;;;;1028395;28;20137;-72
2023/10/30 03:03:26;;;;;;;3.35;2.55;;;;;;;;;;1026369;28;20041;-72
2023/10/30 03:03:57;;;;;;;0.70;0.70;;;;;;;;;;1022851;28;20031;-72
2023/10/30 03:04:28;;;;;;;1.20;1.10;;;;;;;;;;1022653;28;20042;-72
2023/10/30 03:04:59;;;;;;;2.05;1.92;;;;;;;;;;1020788;28;20035;-73